createdAt,value
2018-08-28T00:00:59.033Z,2.72
2018-08-28T00:03:27.285Z,2.58
2018-08-28T00:05:55.517Z,2.52
2018-08-28T00:08:23.753Z,2.80
2018-08-28T00:10:51.995Z,2.65
2018-08-28T00:13:20.237Z,2.92
2018-08-28T00:15:48.485Z,2.80
2018-08-28T00:18:16.728Z,2.60
2018-08-28T00:20:44.976Z,3.02
2018-08-28T00:23:13.249Z,2.65
2018-08-28T00:25:41.471Z,3.20
2018-08-28T00:28:09.741Z,3.02
2018-08-28T00:30:37.975Z,3.20
2018-08-28T00:33:06.326Z,2.98
2018-08-28T00:35:34.581Z,3.27
2018-08-28T00:38:02.842Z,3.27
2018-08-28T00:40:31.075Z,3.22
2018-08-28T00:42:59.328Z,3.02
2018-08-28T00:45:27.578Z,3.20
2018-08-28T00:47:55.867Z,3.02
2018-08-28T00:50:24.108Z,3.58
2018-08-28T00:52:52.363Z,3.20
2018-08-28T00:55:20.612Z,3.08
2018-08-28T00:57:48.895Z,3.10
2018-08-28T01:00:17.158Z,3.22
2018-08-28T01:02:45.377Z,3.15
2018-08-28T01:05:13.616Z,3.27
2018-08-28T01:07:41.883Z,3.67
2018-08-28T01:10:10.103Z,3.10
2018-08-28T01:12:38.351Z,3.67
2018-08-28T01:15:06.943Z,3.33
2018-08-28T01:17:35.152Z,3.10
2018-08-28T01:20:03.786Z,3.40
2018-08-28T01:22:31.998Z,3.33
2018-08-28T01:25:00.216Z,3.40
2018-08-28T01:27:28.423Z,3.47
2018-08-28T01:29:56.647Z,3.90
2018-08-28T01:32:24.873Z,3.92
2018-08-28T01:34:53.122Z,4.47
2018-08-28T01:37:21.320Z,3.95
2018-08-28T01:39:49.532Z,4.65
2018-08-28T01:42:22.374Z,3.90
2018-08-28T01:44:50.852Z,4.35
2018-08-28T01:47:19.533Z,4.25
2018-08-28T01:49:48.016Z,4.85
2018-08-28T01:52:16.245Z,4.50
2018-08-28T01:54:44.675Z,4.25
2018-08-28T01:57:12.912Z,4.33
2018-08-28T01:59:41.180Z,4.60
2018-08-28T02:02:09.415Z,4.30
2018-08-28T02:04:37.640Z,4.20
2018-08-28T02:07:05.882Z,3.72
2018-08-28T02:09:34.107Z,4.40
2018-08-28T02:12:02.327Z,4.40
2018-08-28T02:14:30.583Z,3.70
2018-08-28T02:16:58.821Z,4.58
2018-08-28T02:19:27.054Z,4.30
2018-08-28T02:21:55.274Z,4.37
2018-08-28T02:24:23.488Z,4.90
2018-08-28T02:26:51.714Z,4.58
2018-08-28T02:29:19.911Z,4.33
2018-08-28T02:31:48.127Z,4.62
2018-08-28T02:34:16.341Z,4.80
2018-08-28T02:36:44.587Z,4.92
2018-08-28T02:39:12.808Z,4.30
2018-08-28T02:41:41.716Z,5.05
2018-08-28T02:44:10.147Z,4.30
2018-08-28T02:46:38.801Z,4.85
2018-08-28T02:49:07.384Z,4.40
2018-08-28T02:51:36.380Z,4.78
2018-08-28T02:54:04.604Z,4.05
2018-08-28T02:56:32.844Z,4.70
2018-08-28T02:59:01.066Z,4.80
2018-08-28T03:01:29.302Z,4.58
2018-08-28T03:03:57.541Z,4.62
2018-08-28T03:06:25.768Z,3.98
2018-08-28T03:08:53.995Z,4.50
2018-08-28T03:11:22.265Z,3.95
2018-08-28T03:13:50.473Z,4.40
2018-08-28T03:16:18.705Z,5.03
2018-08-28T03:18:46.919Z,4.58
2018-08-28T03:21:15.332Z,4.30
2018-08-28T03:23:43.548Z,4.50
2018-08-28T03:26:11.779Z,5.03
2018-08-28T03:28:40.043Z,4.65
2018-08-28T03:31:08.291Z,4.53
2018-08-28T03:33:36.523Z,4.67
2018-08-28T03:36:04.751Z,4.67
2018-08-28T03:38:33.041Z,4.45
2018-08-28T03:41:01.328Z,4.35
2018-08-28T03:43:29.551Z,4.40
2018-08-28T03:45:57.772Z,4.35
2018-08-28T03:48:26.013Z,4.95
2018-08-28T03:50:54.216Z,4.90
2018-08-28T03:53:22.417Z,4.25
2018-08-28T03:55:50.680Z,5.22
2018-08-28T03:58:18.918Z,5.00
2018-08-28T04:00:47.430Z,4.47
2018-08-28T04:03:15.663Z,4.80
2018-08-28T04:05:43.993Z,4.87
2018-08-28T04:08:12.255Z,4.55
2018-08-28T04:10:40.508Z,4.75
2018-08-28T04:13:08.751Z,4.70
2018-08-28T04:15:36.964Z,4.55
2018-08-28T04:18:11.966Z,5.10
2018-08-28T04:20:40.187Z,5.35
2018-08-28T04:23:08.426Z,4.50
2018-08-28T04:25:36.649Z,4.80
2018-08-28T04:28:04.858Z,4.72
2018-08-28T04:30:33.172Z,4.55
2018-08-28T04:33:01.313Z,5.30
2018-08-28T04:35:29.490Z,4.33
2018-08-28T04:37:57.790Z,5.20
2018-08-28T04:40:25.994Z,5.25
2018-08-28T04:42:54.223Z,5.03
2018-08-28T04:45:22.432Z,6.03
2018-08-28T04:47:50.661Z,4.95
2018-08-28T04:50:18.908Z,5.37
2018-08-28T04:52:47.147Z,5.12
2018-08-28T04:55:15.355Z,4.70
2018-08-28T04:57:43.558Z,4.85
2018-08-28T05:00:11.768Z,4.30
2018-08-28T05:02:39.966Z,5.15
2018-08-28T05:05:09.310Z,5.35
2018-08-28T05:07:37.627Z,4.80
2018-08-28T05:10:06.543Z,4.80
2018-08-28T05:12:34.804Z,4.50
2018-08-28T05:15:03.031Z,4.90
2018-08-28T05:17:31.270Z,5.05
2018-08-28T05:19:59.482Z,4.85
2018-08-28T05:22:27.688Z,5.53
2018-08-28T05:24:55.876Z,4.97
2018-08-28T05:27:24.084Z,5.53
2018-08-28T05:29:52.287Z,5.10
2018-08-28T05:32:20.501Z,6.03
2018-08-28T05:34:48.742Z,4.35
2018-08-28T05:37:16.953Z,4.37
2018-08-28T05:39:45.321Z,5.22
2018-08-28T05:42:13.642Z,5.00
2018-08-28T05:44:41.862Z,5.50
2018-08-28T05:47:10.082Z,4.97
2018-08-28T05:49:38.310Z,5.60
2018-08-28T05:52:06.517Z,5.62
2018-08-28T05:54:34.715Z,6.42
2018-08-28T05:57:02.926Z,7.65
2018-08-28T05:59:31.146Z,7.87
2018-08-28T06:01:59.355Z,7.70
2018-08-28T06:04:27.568Z,7.78
2018-08-28T06:09:30.384Z,6.75
2018-08-28T06:11:58.594Z,9.53
2018-08-28T06:14:26.836Z,8.28
2018-08-28T06:16:55.048Z,9.63
2018-08-28T06:19:23.281Z,10.25
2018-08-28T06:21:51.512Z,8.55
2018-08-28T06:24:19.731Z,10.55
2018-08-28T06:26:47.950Z,10.38
2018-08-28T06:29:16.195Z,11.33
2018-08-28T06:31:44.407Z,12.20
2018-08-28T06:34:12.683Z,11.53
2018-08-28T06:36:40.910Z,11.25
2018-08-28T06:39:09.615Z,10.80
2018-08-28T06:41:38.079Z,10.55
2018-08-28T06:44:06.419Z,13.08
2018-08-28T06:46:34.646Z,12.98
2018-08-28T06:49:02.848Z,12.28
2018-08-28T06:51:31.106Z,11.60
2018-08-28T06:53:59.339Z,10.25
2018-08-28T06:56:27.560Z,10.85
2018-08-28T06:58:55.780Z,9.43
2018-08-28T07:01:24.020Z,9.75
2018-08-28T07:03:52.285Z,11.78
2018-08-28T07:06:20.437Z,12.05
2018-08-28T07:08:48.645Z,11.08
2018-08-28T07:11:16.903Z,11.65
2018-08-28T07:13:45.119Z,10.93
2018-08-28T07:16:13.333Z,12.33
2018-08-28T07:18:41.593Z,10.95
2018-08-28T07:21:09.814Z,11.33
2018-08-28T07:23:38.016Z,9.83
2018-08-28T07:26:06.344Z,9.10
2018-08-28T07:28:34.491Z,9.03
2018-08-28T07:31:02.765Z,8.85
2018-08-28T07:33:30.991Z,8.65
2018-08-28T07:35:59.214Z,9.13
2018-08-28T07:38:27.473Z,8.00
2018-08-28T07:40:55.682Z,8.20
2018-08-28T07:43:23.949Z,7.20
2018-08-28T07:45:52.148Z,8.10
2018-08-28T07:48:20.415Z,7.53
2018-08-28T07:50:48.602Z,7.50
2018-08-28T07:53:16.826Z,7.03
2018-08-28T07:55:45.038Z,6.67
2018-08-28T07:58:13.249Z,6.53
2018-08-28T08:00:41.430Z,6.62
2018-08-28T08:03:09.608Z,5.97
2018-08-28T08:05:37.865Z,6.60
2018-08-28T08:08:06.090Z,5.75
2018-08-28T08:10:34.330Z,5.75
2018-08-28T08:13:02.551Z,5.90
2018-08-28T08:15:30.803Z,6.20
2018-08-28T08:17:59.017Z,6.25
2018-08-28T08:20:27.225Z,5.47
2018-08-28T08:22:55.447Z,5.20
2018-08-28T08:25:23.679Z,5.25
2018-08-28T08:27:51.939Z,6.00
2018-08-28T08:30:20.110Z,5.45
2018-08-28T08:32:48.318Z,5.17
2018-08-28T08:35:16.582Z,6.10
2018-08-28T08:37:44.773Z,5.25
2018-08-28T08:40:12.971Z,5.67
2018-08-28T08:42:41.164Z,5.35
2018-08-28T08:45:09.384Z,5.47
2018-08-28T08:47:37.583Z,5.30
2018-08-28T08:50:05.821Z,5.47
2018-08-28T08:52:34.030Z,5.87
2018-08-28T08:55:02.323Z,5.03
2018-08-28T08:57:30.548Z,5.58
2018-08-28T08:59:58.665Z,5.22
2018-08-28T09:02:26.878Z,5.92
2018-08-28T09:04:55.066Z,5.60
2018-08-28T09:07:23.401Z,5.58
2018-08-28T09:09:51.611Z,5.30
2018-08-28T09:12:19.834Z,6.08
2018-08-28T09:14:48.046Z,5.20
2018-08-28T09:17:16.263Z,5.45
2018-08-28T09:19:44.505Z,5.80
2018-08-28T09:22:12.711Z,6.58
2018-08-28T09:24:40.945Z,5.47
2018-08-28T09:27:09.202Z,5.78
2018-08-28T09:29:37.403Z,5.35
2018-08-28T09:32:05.695Z,5.78
2018-08-28T09:34:33.884Z,6.33
2018-08-28T09:37:02.136Z,6.62
2018-08-28T09:39:30.356Z,5.35
2018-08-28T09:41:58.587Z,6.50
2018-08-28T09:44:26.821Z,6.67
2018-08-28T09:46:55.040Z,5.92
2018-08-28T09:49:23.265Z,6.87
2018-08-28T09:51:51.460Z,7.17
2018-08-28T09:54:19.683Z,7.15
2018-08-28T09:56:47.902Z,7.53
2018-08-28T09:59:16.125Z,6.72
2018-08-28T10:01:45.680Z,7.35
2018-08-28T10:04:14.807Z,7.53
2018-08-28T10:06:43.019Z,7.70
2018-08-28T10:09:13.711Z,7.20
2018-08-28T10:11:41.990Z,7.42
2018-08-28T10:14:11.062Z,7.40
2018-08-28T10:16:39.312Z,7.45
2018-08-28T10:19:07.594Z,7.55
2018-08-28T10:21:36.322Z,7.05
2018-08-28T10:24:04.571Z,8.08
2018-08-28T10:26:32.803Z,7.62
2018-08-28T10:29:01.060Z,7.90
2018-08-28T10:31:29.436Z,7.50
2018-08-28T10:33:57.687Z,6.87
2018-08-28T10:36:25.936Z,7.70
2018-08-28T10:38:54.159Z,7.10
2018-08-28T10:41:22.575Z,7.50
2018-08-28T10:43:50.814Z,7.75
2018-08-28T10:46:19.081Z,7.47
2018-08-28T10:48:47.270Z,8.00
2018-08-28T10:51:16.427Z,7.85
2018-08-28T10:53:44.670Z,8.00
2018-08-28T10:56:12.891Z,7.83
2018-08-28T10:58:41.156Z,7.05
2018-08-28T11:01:09.403Z,7.12
2018-08-28T11:03:37.629Z,7.33
2018-08-28T11:06:05.893Z,6.25
2018-08-28T11:08:34.139Z,7.22
2018-08-28T11:11:02.309Z,7.28
2018-08-28T11:13:30.522Z,6.40
2018-08-28T11:15:58.806Z,6.50
2018-08-28T11:18:26.982Z,8.03
2018-08-28T11:20:55.187Z,7.45
2018-08-28T11:23:23.400Z,7.22
2018-08-28T11:25:51.618Z,7.37
2018-08-28T11:28:19.839Z,6.78
2018-08-28T11:30:48.088Z,7.33
2018-08-28T11:33:16.293Z,7.35
2018-08-28T11:35:44.524Z,8.10
2018-08-28T11:38:12.724Z,6.80
2018-08-28T11:40:40.962Z,7.50
2018-08-28T11:43:09.194Z,7.50
2018-08-28T11:45:37.422Z,8.03
2018-08-28T11:48:05.977Z,7.10
2018-08-28T11:50:34.203Z,7.17
2018-08-28T11:53:02.443Z,7.78
2018-08-28T11:55:30.667Z,7.20
2018-08-28T11:57:59.299Z,7.60
2018-08-28T12:00:27.548Z,7.92
2018-08-28T12:02:55.792Z,8.13
2018-08-28T12:05:24.071Z,7.70
2018-08-28T12:07:52.363Z,7.28
2018-08-28T12:10:20.523Z,8.45
2018-08-28T12:12:48.789Z,8.05
2018-08-28T12:15:17.002Z,8.35
2018-08-28T12:17:45.332Z,8.75
2018-08-28T12:20:13.584Z,8.05
2018-08-28T12:22:41.810Z,7.83
2018-08-28T12:25:10.274Z,7.53
2018-08-28T12:27:38.546Z,7.12
2018-08-28T12:30:07.661Z,8.05
2018-08-28T12:32:35.891Z,8.20
2018-08-28T12:35:04.245Z,7.45
2018-08-28T12:37:32.503Z,7.80
2018-08-28T12:40:00.732Z,7.87
2018-08-28T12:42:29.389Z,7.92
2018-08-28T12:44:57.656Z,7.95
2018-08-28T12:47:25.917Z,8.08
2018-08-28T12:49:54.173Z,8.73
2018-08-28T12:52:22.426Z,7.62
2018-08-28T12:54:50.783Z,7.75
2018-08-28T12:57:18.909Z,7.58
2018-08-28T12:59:47.155Z,8.55
2018-08-28T13:02:15.409Z,7.65
2018-08-28T13:04:43.613Z,8.43
2018-08-28T13:07:11.968Z,8.30
2018-08-28T13:09:40.109Z,8.75
2018-08-28T13:12:08.379Z,8.65
2018-08-28T13:14:36.723Z,8.20
2018-08-28T13:17:04.941Z,8.08
2018-08-28T13:19:33.198Z,7.97
2018-08-28T13:22:01.464Z,7.62
2018-08-28T13:24:29.707Z,8.38
2018-08-28T13:26:57.998Z,8.45
2018-08-28T13:29:26.237Z,8.83
2018-08-28T13:31:54.496Z,7.78
2018-08-28T13:34:22.782Z,7.97
2018-08-28T13:36:51.005Z,7.65
2018-08-28T13:39:19.260Z,8.10
2018-08-28T13:41:47.525Z,8.50
2018-08-28T13:44:15.757Z,8.18
2018-08-28T13:46:43.993Z,8.15
2018-08-28T13:49:12.278Z,8.35
2018-08-28T13:51:40.531Z,7.83
2018-08-28T13:54:08.764Z,8.10
2018-08-28T13:56:37.383Z,7.35
2018-08-28T13:59:05.645Z,7.85
2018-08-28T14:01:33.915Z,7.70
2018-08-28T14:04:02.188Z,8.55
2018-08-28T14:06:30.448Z,7.60
2018-08-28T14:08:58.729Z,8.30
2018-08-28T14:11:26.980Z,7.90
2018-08-28T14:13:55.338Z,7.92
2018-08-28T14:16:23.658Z,8.65
2018-08-28T14:18:51.908Z,8.28
2018-08-28T14:21:20.150Z,7.83
2018-08-28T14:23:48.412Z,8.28
2018-08-28T14:26:16.690Z,8.05
2018-08-28T14:28:45.026Z,8.60
2018-08-28T14:31:13.181Z,7.67
2018-08-28T14:33:41.444Z,8.20
2018-08-28T14:36:09.702Z,8.00
2018-08-28T14:38:38.013Z,8.15
2018-08-28T14:41:06.257Z,8.55
2018-08-28T14:43:34.523Z,7.72
2018-08-28T14:46:02.776Z,8.38
2018-08-28T14:48:31.020Z,8.45
2018-08-28T14:50:59.279Z,8.03
2018-08-28T14:53:27.546Z,9.03
2018-08-28T14:55:55.791Z,7.70
2018-08-28T14:58:24.033Z,7.72
2018-08-28T15:00:52.286Z,8.43
2018-08-28T15:03:20.540Z,8.55
2018-08-28T15:05:48.803Z,8.85
2018-08-28T15:08:17.081Z,8.35
2018-08-28T15:10:45.356Z,8.25
2018-08-28T15:13:13.607Z,8.18
2018-08-28T15:15:41.902Z,8.05
2018-08-28T15:18:10.181Z,8.48
2018-08-28T15:20:38.436Z,8.73
2018-08-28T15:23:06.701Z,7.83
2018-08-28T15:25:34.945Z,8.28
2018-08-28T15:28:03.180Z,8.38
2018-08-28T15:30:31.438Z,8.10
2018-08-28T15:32:59.702Z,8.68
2018-08-28T15:35:27.986Z,8.93
2018-08-28T15:37:56.282Z,8.78
2018-08-28T15:40:24.567Z,8.08
2018-08-28T15:42:52.888Z,7.92
2018-08-28T15:45:21.081Z,8.40
2018-08-28T15:47:49.340Z,8.98
2018-08-28T15:50:17.590Z,7.67
2018-08-28T15:52:45.997Z,8.40
2018-08-28T15:55:14.259Z,8.10
2018-08-28T15:57:42.500Z,8.33
2018-08-28T16:00:10.771Z,8.60
2018-08-28T16:02:39.050Z,8.93
2018-08-28T16:05:07.512Z,8.38
2018-08-28T16:07:35.763Z,8.33
2018-08-28T16:10:04.112Z,7.65
2018-08-28T16:12:32.416Z,8.48
2018-08-28T16:15:00.694Z,8.05
2018-08-28T16:17:28.929Z,8.35
2018-08-28T16:19:57.211Z,8.93
2018-08-28T16:22:30.173Z,8.38
2018-08-28T16:24:58.423Z,8.63
2018-08-28T16:27:26.750Z,7.95
2018-08-28T16:29:55.097Z,8.18
2018-08-28T16:32:23.629Z,7.70
2018-08-28T16:34:52.177Z,8.23
2018-08-28T16:37:20.646Z,7.60
2018-08-28T16:39:48.931Z,8.30
2018-08-28T16:42:17.212Z,8.05
2018-08-28T16:44:45.471Z,8.73
2018-08-28T16:47:13.715Z,7.95
2018-08-28T16:49:41.942Z,8.63
2018-08-28T16:52:10.215Z,8.38
2018-08-28T16:54:38.476Z,7.72
2018-08-28T16:57:06.727Z,8.38
2018-08-28T16:59:35.018Z,8.28
2018-08-28T17:02:03.295Z,8.05
2018-08-28T17:04:32.049Z,8.73
2018-08-28T17:07:00.371Z,8.05
2018-08-28T17:09:28.624Z,8.28
2018-08-28T17:11:56.882Z,7.78
2018-08-28T17:14:25.203Z,9.03
2018-08-28T17:16:53.482Z,8.10
2018-08-28T17:19:21.786Z,7.95
2018-08-28T17:21:50.195Z,8.18
2018-08-28T17:24:18.420Z,8.00
2018-08-28T17:26:46.655Z,7.87
2018-08-28T17:29:14.905Z,8.45
2018-08-28T17:31:43.114Z,7.53
2018-08-28T17:34:11.375Z,7.83
2018-08-28T17:36:39.682Z,8.33
2018-08-28T17:39:08.246Z,7.70
2018-08-28T17:41:36.536Z,7.58
2018-08-28T17:44:04.803Z,8.03
2018-08-28T17:46:33.085Z,8.00
2018-08-28T17:49:02.367Z,7.42
2018-08-28T17:51:30.613Z,7.47
2018-08-28T17:53:58.883Z,6.92
2018-08-28T17:56:27.147Z,7.17
2018-08-28T17:58:55.416Z,7.80
2018-08-28T18:01:23.794Z,9.75
2018-08-28T18:03:52.043Z,17.95
2018-08-28T18:06:20.303Z,14.15
2018-08-28T18:08:48.545Z,9.40
2018-08-28T18:11:16.809Z,8.20
2018-08-28T18:13:45.109Z,6.80
2018-08-28T18:16:13.372Z,7.17
2018-08-28T18:18:41.737Z,7.22
2018-08-28T18:21:10.010Z,7.10
2018-08-28T18:23:38.352Z,6.15
2018-08-28T18:26:06.796Z,7.30
2018-08-28T18:28:35.054Z,6.90
2018-08-28T18:31:03.318Z,6.42
2018-08-28T18:33:31.592Z,6.47
2018-08-28T18:35:59.955Z,6.28
2018-08-28T18:38:28.113Z,6.03
2018-08-28T18:40:56.398Z,6.75
2018-08-28T18:43:24.637Z,6.70
2018-08-28T18:45:52.872Z,6.72
2018-08-28T18:48:21.168Z,6.42
2018-08-28T18:50:49.397Z,6.60
2018-08-28T18:53:17.641Z,6.28
2018-08-28T18:55:45.874Z,5.70
2018-08-28T18:58:14.111Z,6.28
2018-08-28T19:00:42.370Z,6.03
2018-08-28T19:03:10.586Z,6.90
2018-08-28T19:05:38.815Z,6.10
2018-08-28T19:08:07.070Z,6.17
2018-08-28T19:10:35.415Z,6.87
2018-08-28T19:13:03.647Z,6.17
2018-08-28T19:15:31.917Z,6.65
2018-08-28T19:18:00.179Z,6.25
2018-08-28T19:20:28.436Z,6.08
2018-08-28T19:22:56.629Z,6.37
2018-08-28T19:25:24.911Z,6.50
2018-08-28T19:27:53.111Z,6.40
2018-08-28T19:30:21.349Z,6.85
2018-08-28T19:32:49.646Z,6.40
2018-08-28T19:35:17.871Z,6.87
2018-08-28T19:37:46.115Z,7.08
2018-08-28T19:40:14.357Z,6.67
2018-08-28T19:42:42.573Z,7.67
2018-08-28T19:45:10.806Z,6.37
2018-08-28T19:47:39.021Z,7.00
2018-08-28T19:50:07.338Z,6.65
2018-08-28T19:52:35.591Z,6.50
2018-08-28T19:55:03.848Z,6.92
2018-08-28T19:57:32.090Z,6.67
2018-08-28T20:00:00.337Z,7.60
2018-08-28T20:02:28.579Z,6.67
2018-08-28T20:04:56.830Z,6.55
2018-08-28T20:07:25.110Z,7.55
2018-08-28T20:09:53.490Z,7.20
2018-08-28T20:12:21.723Z,6.75
2018-08-28T20:14:49.948Z,6.35
2018-08-28T20:17:18.172Z,6.75
2018-08-28T20:19:46.450Z,6.72
2018-08-28T20:22:14.712Z,6.80
2018-08-28T20:24:42.946Z,6.67
2018-08-28T20:27:11.208Z,6.70
2018-08-28T20:29:39.739Z,6.58
2018-08-28T20:32:08.037Z,6.40
2018-08-28T20:34:36.260Z,6.97
2018-08-28T20:37:04.558Z,6.70
2018-08-28T20:39:32.803Z,6.50
2018-08-28T20:42:01.038Z,7.10
2018-08-28T20:44:29.334Z,6.33
2018-08-28T20:46:57.562Z,7.35
2018-08-28T20:49:25.836Z,6.85
2018-08-28T20:51:54.094Z,7.50
2018-08-28T20:54:22.388Z,6.75
2018-08-28T20:56:50.672Z,6.65
2018-08-28T20:59:18.948Z,6.97
2018-08-28T21:01:47.273Z,6.70
2018-08-28T21:04:15.521Z,7.05
2018-08-28T21:06:43.853Z,6.45
2018-08-28T21:09:12.054Z,6.83
2018-08-28T21:11:40.299Z,6.87
2018-08-28T21:14:08.561Z,6.92
2018-08-28T21:16:36.821Z,6.65
2018-08-28T21:19:05.162Z,6.70
2018-08-28T21:21:33.425Z,6.67
2018-08-28T21:24:01.714Z,6.72
2018-08-28T21:26:30.077Z,6.85
2018-08-28T21:28:58.469Z,7.17
2018-08-28T21:31:26.679Z,6.75
2018-08-28T21:33:54.999Z,6.22
2018-08-28T21:36:23.228Z,6.67
2018-08-28T21:38:51.484Z,6.90
2018-08-28T21:41:19.772Z,7.22
2018-08-28T21:43:48.001Z,7.42
2018-08-28T21:46:16.315Z,6.75
2018-08-28T21:48:44.601Z,7.12
2018-08-28T21:51:12.846Z,7.00
2018-08-28T21:53:41.089Z,7.78
2018-08-28T21:56:09.415Z,7.28
2018-08-28T21:58:37.656Z,7.12
2018-08-28T22:01:11.980Z,6.80
2018-08-28T22:03:41.461Z,7.53
2018-08-28T22:06:15.207Z,8.43
2018-08-28T22:08:43.673Z,7.75
2018-08-28T22:11:12.034Z,7.15
2018-08-28T22:13:40.303Z,7.62
2018-08-28T22:16:08.591Z,7.87
2018-08-28T22:18:36.843Z,7.97
2018-08-28T22:21:05.270Z,7.85
2018-08-28T22:23:33.485Z,7.62
2018-08-28T22:26:01.704Z,7.58
2018-08-28T22:28:29.915Z,7.45
2018-08-28T22:30:58.153Z,7.22
2018-08-28T22:33:26.390Z,7.80
2018-08-28T22:35:54.599Z,7.70
2018-08-28T22:38:22.853Z,7.35
2018-08-28T22:40:51.042Z,7.85
2018-08-28T22:43:21.266Z,8.15
2018-08-28T22:45:49.683Z,7.35
2018-08-28T22:48:17.919Z,6.65
2018-08-28T22:50:46.595Z,7.28
2018-08-28T22:53:14.855Z,7.55
2018-08-28T22:55:43.075Z,7.83
2018-08-28T22:58:11.313Z,7.62
2018-08-28T23:00:39.522Z,7.70
2018-08-28T23:03:07.745Z,7.42
2018-08-28T23:05:35.946Z,7.10
2018-08-28T23:08:04.159Z,6.97
2018-08-28T23:10:32.351Z,8.05
2018-08-28T23:13:00.597Z,7.45
2018-08-28T23:15:28.828Z,7.37
2018-08-28T23:17:57.031Z,7.75
2018-08-28T23:20:25.233Z,8.10
2018-08-28T23:22:53.429Z,8.00
2018-08-28T23:25:21.646Z,8.30
2018-08-28T23:27:49.917Z,7.83
2018-08-28T23:30:18.168Z,8.08
2018-08-28T23:32:46.384Z,7.97
2018-08-28T23:35:14.688Z,8.05
2018-08-28T23:37:42.914Z,8.05
2018-08-28T23:40:11.111Z,7.40
2018-08-28T23:42:39.316Z,8.13
2018-08-28T23:45:07.610Z,7.70
2018-08-28T23:47:35.859Z,8.13
2018-08-28T23:50:04.101Z,8.08
2018-08-28T23:52:32.337Z,7.60
2018-08-28T23:55:00.572Z,8.08
2018-08-28T23:57:28.795Z,7.87
2018-08-28T23:59:57.052Z,7.97
